This is the latest recevied weather packets stored in our database for station/object GW1492. If no packets are shown the sender has not sent any weather packets the latest 10 day(s).
| Time | Temp. | Humidity | Pressure | Rain* | Wind** | Luminosity | Snow |
|---|---|---|---|---|---|---|---|
| 1776959112 | 22.22° C | 44% | 1021.3 hPa | 0 mm | - | - | - |
| 1776958062 | 23.33° C | 39% | 1021.3 hPa | 0 mm | - | - | - |
| 1776954832 | 23.33° C | 44% | 1021.6 hPa | 0 mm | - | - | - |
| 1776951228 | 16.67° C | 58% | 1021.3 hPa | 0 mm | - | - | - |
| 1776949763 | 15° C | 67% | 1021.6 hPa | 0 mm | - | - | - |
| 1776947632 | 13.33° C | 68% | 1021.3 hPa | 0 mm | - | - | - |
| 1776947264 | 13.33° C | 69% | 1021.6 hPa | 0 mm | - | - | - |
| 1776945808 | 11.67° C | 74% | 1021.3 hPa | 0 mm | - | - | - |
| 1776941484 | 11.11° C | 70% | 1020.6 hPa | 0 mm | - | - | - |
| 1776938249 | 12.22° C | 61% | 1020.6 hPa | 0 mm | - | - | - |
| 1776937882 | 12.22° C | 65% | 1020.3 hPa | 0 mm | - | - | - |
| 1776936428 | 11.67° C | 67% | 1020.3 hPa | 0 mm | - | - | - |
| 1776935350 | 11.67° C | 68% | 1020.3 hPa | 0 mm | - | - | - |
| 1776935017 | 11.67° C | 65% | 1020.3 hPa | 0 mm | - | - | - |
| 1776932130 | 11.67° C | 66% | 1020.3 hPa | 0 mm | - | - | - |
| 1776928889 | 11.67° C | 63% | 1020.3 hPa | 0 mm | - | - | - |
| 1776927450 | 12.22° C | 60% | 1020.3 hPa | 0 mm | - | - | - |
| 1776925991 | 12.22° C | 63% | 1020.3 hPa | 0 mm | - | - | - |
| 1776925654 | 12.22° C | 61% | 1020.3 hPa | 0 mm | - | - | - |
| 1776922402 | 12.78° C | 57% | 1020.6 hPa | 0 mm | - | - | - |
| 1776922043 | 12.78° C | 57% | 1020.6 hPa | 0 mm | - | - | - |
| 1776921350 | 13.33° C | 56% | 1020.6 hPa | 0 mm | - | - | - |
| 1776918798 | 13.89° C | 49% | 1020.6 hPa | 0 mm | - | - | - |
| 1776917752 | 13.33° C | 52% | 1020.6 hPa | 0 mm | - | - | - |
| 1776915581 | 13.89° C | 50% | 1020.6 hPa | 0 mm | - | - | - |
* Rain since midnight (hover to see other rain measurements)
** Current wind speed in m/s (hover to see current wind gust speed)